Time;durP1;ratioP1;P1;durP2;ratioP2;P2;SDS_P1;SDS_P2;PMS_P1;PMS_P2;Temp;Humidity;BMP_temperature;BMP_pressure;BME280_temperature;BME280_humidity;BME280_pressure;Samples;Min_cycle;Max_cycle;Signal;HPM_P1;HPM_P2
2024/02/29 00:00:52;;;;;;;60.58;25.50;;;;;;;;;;6209108;23;20199;-92
2024/02/29 00:03:59;;;;;;;66.65;25.58;;;;;;;;;;6209680;23;20167;-91
2024/02/29 00:07:05;;;;;;;60.25;23.90;;;;;;;;;;6207434;23;20278;-91
2024/02/29 00:10:10;;;;;;;55.45;24.23;;;;;;;;;;6208020;23;20155;-91
2024/02/29 00:13:16;;;;;;;64.00;25.05;;;;;;;;;;6209432;23;20155;-90
2024/02/29 00:16:21;;;;;;;64.53;24.98;;;;;;;;;;6210270;23;20171;-91
2024/02/29 00:19:28;;;;;;;63.15;25.08;;;;;;;;;;6209601;23;20503;-91
2024/02/29 00:22:33;;;;;;;62.80;26.40;;;;;;;;;;6208113;23;20194;-92
2024/02/29 00:25:38;;;;;;;63.42;25.75;;;;;;;;;;6208367;23;20279;-91
2024/02/29 00:28:43;;;;;;;59.05;24.17;;;;;;;;;;6208272;23;20706;-91
2024/02/29 00:31:49;;;;;;;62.70;25.02;;;;;;;;;;6210005;23;20175;-91
2024/02/29 00:34:56;;;;;;;63.80;24.58;;;;;;;;;;6225823;23;20171;-92
2024/02/29 00:38:02;;;;;;;57.25;24.92;;;;;;;;;;6208857;23;20215;-90
2024/02/29 00:41:07;;;;;;;66.00;26.70;;;;;;;;;;6206641;23;20175;-91
2024/02/29 00:44:11;;;;;;;55.78;24.92;;;;;;;;;;6207946;23;20171;-92
2024/02/29 00:47:17;;;;;;;61.28;25.67;;;;;;;;;;6207299;23;20194;-91
2024/02/29 00:50:23;;;;;;;64.70;25.35;;;;;;;;;;6207952;23;20218;-89
2024/02/29 00:53:28;;;;;;;63.92;25.83;;;;;;;;;;6208242;23;20175;-92
2024/02/29 00:56:34;;;;;;;63.15;24.98;;;;;;;;;;6207878;23;20214;-92
2024/02/29 00:59:39;;;;;;;64.43;24.90;;;;;;;;;;6209828;23;20159;-91
2024/02/29 01:02:45;;;;;;;62.53;25.17;;;;;;;;;;6208278;23;20237;-90
2024/02/29 01:05:51;;;;;;;61.63;24.33;;;;;;;;;;6208493;23;20174;-91
2024/02/29 01:08:56;;;;;;;62.17;25.88;;;;;;;;;;6207409;23;20174;-93
2024/02/29 01:12:01;;;;;;;59.13;24.20;;;;;;;;;;6209157;23;20224;-93
2024/02/29 01:15:07;;;;;;;61.75;24.25;;;;;;;;;;6208270;23;20167;-90
2024/02/29 01:18:13;;;;;;;64.22;23.58;;;;;;;;;;6208360;23;20163;-92
2024/02/29 01:21:19;;;;;;;58.85;24.17;;;;;;;;;;6208668;23;20163;-92
2024/02/29 01:24:24;;;;;;;65.13;26.05;;;;;;;;;;6208855;23;20250;-92
2024/02/29 01:27:29;;;;;;;57.33;24.38;;;;;;;;;;6207653;23;20195;-91
2024/02/29 01:30:35;;;;;;;54.70;23.05;;;;;;;;;;6207042;23;20242;-90
2024/02/29 01:33:40;;;;;;;62.05;23.73;;;;;;;;;;6207333;23;20214;-91
2024/02/29 01:36:47;;;;;;;61.95;25.17;;;;;;;;;;6227242;23;20210;-91
2024/02/29 01:39:51;;;;;;;60.83;24.13;;;;;;;;;;6211479;23;20167;-91
2024/02/29 01:42:57;;;;;;;60.33;24.65;;;;;;;;;;6209777;23;20171;-91
2024/02/29 01:46:12;;;;;;;67.22;25.40;;;;;;;;;;6207666;23;20175;-92
2024/02/29 01:49:18;;;;;;;61.33;24.60;;;;;;;;;;6206755;23;20160;-91
2024/02/29 01:52:25;;;;;;;66.28;25.20;;;;;;;;;;6209572;23;20183;-92
2024/02/29 01:55:30;;;;;;;64.57;25.73;;;;;;;;;;6209317;23;20186;-91
2024/02/29 01:58:36;;;;;;;67.35;26.10;;;;;;;;;;6210290;23;20261;-90
2024/02/29 02:01:42;;;;;;;67.78;27.02;;;;;;;;;;6206359;23;20283;-91
2024/02/29 02:04:47;;;;;;;66.10;25.58;;;;;;;;;;6206457;23;20650;-91
2024/02/29 02:07:54;;;;;;;70.10;26.42;;;;;;;;;;6207513;23;20190;-91
2024/02/29 02:10:59;;;;;;;66.82;25.33;;;;;;;;;;6207908;23;20225;-91
2024/02/29 02:14:04;;;;;;;67.20;25.40;;;;;;;;;;6207113;23;20163;-91
2024/02/29 02:17:09;;;;;;;65.35;26.25;;;;;;;;;;6206553;23;20213;-91
2024/02/29 02:20:18;;;;;;;64.90;25.63;;;;;;;;;;6206111;23;20154;-91
2024/02/29 02:23:23;;;;;;;62.90;26.55;;;;;;;;;;6207577;23;20175;-91
2024/02/29 02:26:28;;;;;;;63.83;25.02;;;;;;;;;;6207980;23;20218;-90
2024/02/29 02:29:34;;;;;;;64.82;26.63;;;;;;;;;;6207789;23;20163;-90
2024/02/29 02:32:39;;;;;;;75.72;26.58;;;;;;;;;;6205934;23;20183;-92
2024/02/29 02:35:46;;;;;;;67.35;26.92;;;;;;;;;;6206194;23;20171;-90
2024/02/29 02:38:51;;;;;;;67.30;27.40;;;;;;;;;;6207089;23;20174;-91
2024/02/29 02:42:04;;;;;;;66.00;27.50;;;;;;;;;;6209022;23;20170;-91
2024/02/29 02:45:10;;;;;;;71.63;26.77;;;;;;;;;;6206840;23;20247;-90
2024/02/29 02:48:16;;;;;;;64.60;27.30;;;;;;;;;;6213153;23;20219;-91
2024/02/29 02:51:26;;;;;;;75.82;27.80;;;;;;;;;;6211385;23;20167;-91
2024/02/29 02:54:31;;;;;;;73.55;27.90;;;;;;;;;;6210435;23;20175;-91
2024/02/29 02:57:36;;;;;;;70.50;26.40;;;;;;;;;;6210355;23;20498;-91
2024/02/29 03:00:42;;;;;;;68.90;27.38;;;;;;;;;;6209990;23;20158;-90
2024/02/29 03:03:47;;;;;;;72.90;27.45;;;;;;;;;;6209855;23;20170;-90
2024/02/29 03:06:54;;;;;;;66.47;27.00;;;;;;;;;;6210691;23;20714;-91
2024/02/29 03:10:00;;;;;;;59.05;24.35;;;;;;;;;;6214380;23;20171;-92
2024/02/29 03:13:06;;;;;;;65.97;25.98;;;;;;;;;;6210750;23;20167;-92
2024/02/29 03:16:12;;;;;;;61.92;25.92;;;;;;;;;;6215532;23;20171;-90
2024/02/29 03:19:18;;;;;;;66.68;26.95;;;;;;;;;;6211752;23;20261;-90
2024/02/29 03:22:25;;;;;;;67.95;26.40;;;;;;;;;;6210321;23;20168;-90
2024/02/29 03:25:30;;;;;;;64.30;26.83;;;;;;;;;;6210582;23;20494;-91
2024/02/29 03:28:35;;;;;;;63.38;26.00;;;;;;;;;;6211307;23;20182;-92
2024/02/29 03:31:40;;;;;;;63.30;25.05;;;;;;;;;;6212378;23;20179;-91
2024/02/29 03:34:46;;;;;;;74.07;25.50;;;;;;;;;;6210947;23;20166;-92
2024/02/29 03:37:52;;;;;;;66.05;25.60;;;;;;;;;;6210028;23;20179;-90
2024/02/29 03:40:58;;;;;;;64.60;26.08;;;;;;;;;;6212556;23;20159;-92
2024/02/29 03:44:04;;;;;;;64.60;26.42;;;;;;;;;;6229794;23;20183;-90
2024/02/29 03:47:13;;;;;;;66.88;26.05;;;;;;;;;;6211260;23;20191;-92
2024/02/29 03:50:18;;;;;;;61.90;24.85;;;;;;;;;;6214226;23;20167;-91
2024/02/29 03:53:25;;;;;;;58.72;25.27;;;;;;;;;;6213101;23;20167;-92
2024/02/29 03:56:31;;;;;;;59.88;24.75;;;;;;;;;;6210763;23;20195;-91
2024/02/29 03:59:37;;;;;;;64.45;25.77;;;;;;;;;;6211496;23;20187;-88
2024/02/29 04:02:42;;;;;;;61.35;25.17;;;;;;;;;;6211097;23;20611;-93
2024/02/29 04:05:47;;;;;;;64.40;26.48;;;;;;;;;;6209946;23;20171;-91
2024/02/29 04:08:55;;;;;;;66.97;26.58;;;;;;;;;;6211996;23;20191;-90
2024/02/29 04:12:00;;;;;;;63.72;25.30;;;;;;;;;;6214945;23;20178;-91
2024/02/29 04:15:11;;;;;;;62.42;25.73;;;;;;;;;;6233843;23;20535;-89
2024/02/29 04:18:16;;;;;;;66.00;25.92;;;;;;;;;;6213242;23;20279;-92
2024/02/29 04:21:22;;;;;;;62.03;25.40;;;;;;;;;;6211898;23;20175;-92
2024/02/29 04:24:28;;;;;;;72.28;26.45;;;;;;;;;;6209389;23;20174;-92
2024/02/29 04:27:33;;;;;;;70.88;25.35;;;;;;;;;;6210971;23;20191;-91
2024/02/29 04:30:38;;;;;;;62.65;25.08;;;;;;;;;;6207982;23;20170;-91
2024/02/29 04:33:45;;;;;;;60.47;24.45;;;;;;;;;;6209386;23;20163;-91
2024/02/29 04:36:50;;;;;;;68.10;25.15;;;;;;;;;;6210552;23;20187;-90
2024/02/29 04:39:57;;;;;;;70.15;25.30;;;;;;;;;;6211300;23;20171;-92
2024/02/29 04:43:02;;;;;;;66.45;23.92;;;;;;;;;;6209469;23;20182;-92
2024/02/29 04:46:11;;;;;;;59.85;23.23;;;;;;;;;;6226852;23;20473;-91
2024/02/29 04:49:16;;;;;;;59.60;24.05;;;;;;;;;;6211105;23;20195;-89
2024/02/29 04:52:22;;;;;;;56.92;24.13;;;;;;;;;;6212206;23;20171;-92
2024/02/29 04:55:29;;;;;;;63.75;24.23;;;;;;;;;;6213353;23;20502;-89
2024/02/29 04:58:35;;;;;;;66.40;24.77;;;;;;;;;;6217374;23;20172;-91
2024/02/29 05:01:40;;;;;;;61.03;24.43;;;;;;;;;;6211400;23;20234;-90
2024/02/29 05:04:46;;;;;;;63.85;26.30;;;;;;;;;;6211694;23;20175;-92
2024/02/29 05:07:51;;;;;;;62.05;24.02;;;;;;;;;;6212644;23;20190;-92
2024/02/29 05:10:58;;;;;;;62.45;24.48;;;;;;;;;;6210769;23;20194;-91
2024/02/29 05:14:05;;;;;;;227.52;76.47;;;;;;;;;;6209221;23;20231;-91
2024/02/29 05:17:10;;;;;;;71.15;26.67;;;;;;;;;;6209948;23;20179;-91
2024/02/29 05:20:15;;;;;;;66.75;24.77;;;;;;;;;;6209709;23;20166;-91
2024/02/29 05:23:21;;;;;;;67.45;25.45;;;;;;;;;;6210790;23;20150;-90
2024/02/29 05:26:30;;;;;;;62.72;24.00;;;;;;;;;;6211465;23;20163;-90
2024/02/29 05:29:35;;;;;;;60.42;23.90;;;;;;;;;;6211426;23;20284;-90
2024/02/29 05:32:40;;;;;;;62.47;24.38;;;;;;;;;;6214016;23;20491;-93
2024/02/29 05:35:50;;;;;;;61.35;24.50;;;;;;;;;;6214102;23;20244;-91
2024/02/29 05:38:56;;;;;;;60.22;24.67;;;;;;;;;;6213474;23;20186;-92
2024/02/29 05:42:03;;;;;;;64.05;24.55;;;;;;;;;;6212379;23;20244;-92
2024/02/29 05:45:10;;;;;;;61.30;23.92;;;;;;;;;;6212399;23;20168;-92
2024/02/29 05:48:15;;;;;;;59.53;23.88;;;;;;;;;;6230346;23;20246;-90
2024/02/29 05:51:21;;;;;;;60.90;24.80;;;;;;;;;;6211105;23;20186;-91
2024/02/29 05:54:26;;;;;;;64.22;25.05;;;;;;;;;;6208460;23;20662;-91
2024/02/29 05:57:34;;;;;;;61.35;25.10;;;;;;;;;;6209853;23;20170;-91
2024/02/29 06:00:40;;;;;;;63.53;24.63;;;;;;;;;;6211716;23;20178;-91
2024/02/29 06:03:45;;;;;;;61.15;25.00;;;;;;;;;;6211990;23;20190;-91
2024/02/29 06:06:51;;;;;;;67.65;25.20;;;;;;;;;;6210420;23;20189;-91
2024/02/29 06:09:56;;;;;;;67.97;25.30;;;;;;;;;;6209984;23;20175;-91
2024/02/29 06:13:03;;;;;;;62.63;25.55;;;;;;;;;;6209411;23;20175;-92
2024/02/29 06:16:08;;;;;;;66.05;25.33;;;;;;;;;;6212847;23;20166;-92
2024/02/29 06:19:15;;;;;;;64.05;26.92;;;;;;;;;;6213727;23;20167;-90
2024/02/29 06:22:22;;;;;;;63.70;25.23;;;;;;;;;;6211196;23;20215;-91
2024/02/29 06:25:27;;;;;;;63.35;25.33;;;;;;;;;;6213801;23;20160;-90
2024/02/29 06:28:35;;;;;;;86.35;31.90;;;;;;;;;;6213414;23;20246;-92
2024/02/29 06:31:43;;;;;;;74.65;27.85;;;;;;;;;;6214261;23;20171;-90
2024/02/29 06:34:49;;;;;;;73.70;25.52;;;;;;;;;;6212430;23;20630;-92
2024/02/29 06:37:54;;;;;;;75.03;29.98;;;;;;;;;;6216045;23;20222;-92
2024/02/29 06:40:59;;;;;;;61.42;25.17;;;;;;;;;;6230725;23;20171;-90
2024/02/29 06:44:07;;;;;;;65.22;25.65;;;;;;;;;;6212619;23;20254;-93
2024/02/29 06:47:12;;;;;;;66.38;25.80;;;;;;;;;;6212619;23;20171;-91
2024/02/29 06:50:21;;;;;;;62.78;24.55;;;;;;;;;;6227982;23;20171;-90
2024/02/29 06:53:26;;;;;;;62.15;25.40;;;;;;;;;;6212604;23;20151;-91
2024/02/29 06:56:31;;;;;;;63.30;25.25;;;;;;;;;;6209087;23;20190;-92
2024/02/29 06:59:38;;;;;;;64.40;25.30;;;;;;;;;;6211088;23;20167;-91
2024/02/29 07:02:43;;;;;;;63.88;25.48;;;;;;;;;;6215237;23;20154;-91
2024/02/29 07:05:49;;;;;;;70.07;25.23;;;;;;;;;;6214898;23;20186;-91
2024/02/29 07:08:55;;;;;;;62.72;24.88;;;;;;;;;;6213012;23;20191;-91
2024/02/29 07:12:01;;;;;;;59.35;24.83;;;;;;;;;;6211347;23;20206;-91
2024/02/29 07:15:08;;;;;;;57.88;24.52;;;;;;;;;;6215359;23;20675;-90
2024/02/29 07:18:14;;;;;;;65.93;25.13;;;;;;;;;;6214608;23;20186;-91
2024/02/29 07:21:19;;;;;;;62.60;23.70;;;;;;;;;;6233567;23;20179;-91
2024/02/29 07:24:25;;;;;;;61.47;23.60;;;;;;;;;;6215026;23;20235;-90
2024/02/29 07:27:31;;;;;;;59.05;24.10;;;;;;;;;;6233129;23;20172;-91
2024/02/29 07:30:42;;;;;;;60.22;23.75;;;;;;;;;;6215270;23;20231;-90
2024/02/29 07:37:07;;;;;;;65.60;23.63;;;;;;;;;;6214547;23;20224;-92
2024/02/29 07:40:12;;;;;;;58.80;21.85;;;;;;;;;;6215280;23;20179;-91
2024/02/29 07:43:18;;;;;;;58.88;22.88;;;;;;;;;;6215989;23;20170;-93
2024/02/29 07:46:25;;;;;;;57.97;22.73;;;;;;;;;;6218468;23;20236;-91
2024/02/29 07:49:31;;;;;;;51.47;21.65;;;;;;;;;;6216974;23;20195;-92
2024/02/29 07:52:41;;;;;;;56.22;21.88;;;;;;;;;;6215564;23;20170;-91
2024/02/29 07:55:46;;;;;;;52.75;21.83;;;;;;;;;;6215147;23;20226;-92
2024/02/29 07:58:52;;;;;;;54.05;22.73;;;;;;;;;;6215760;23;20206;-92
2024/02/29 08:01:59;;;;;;;56.85;22.75;;;;;;;;;;6214907;23;20488;-91
2024/02/29 08:05:06;;;;;;;47.47;19.52;;;;;;;;;;6216350;23;20171;-93
2024/02/29 08:08:13;;;;;;;47.75;19.25;;;;;;;;;;6216025;23;20195;-93
2024/02/29 08:11:18;;;;;;;49.35;19.58;;;;;;;;;;6231787;23;20179;-91
2024/02/29 08:14:27;;;;;;;53.25;20.73;;;;;;;;;;6217527;23;20171;-92
2024/02/29 08:17:34;;;;;;;52.60;20.77;;;;;;;;;;6215375;23;20220;-93
2024/02/29 08:20:43;;;;;;;59.15;21.45;;;;;;;;;;6216627;23;20175;-92
2024/02/29 08:23:49;;;;;;;44.67;18.88;;;;;;;;;;6216488;23;20581;-92
2024/02/29 08:26:55;;;;;;;43.47;18.98;;;;;;;;;;6214426;23;20155;-93
2024/02/29 08:30:00;;;;;;;117.88;47.58;;;;;;;;;;6215375;23;20252;-90
2024/02/29 08:33:07;;;;;;;47.78;21.85;;;;;;;;;;6215329;23;20242;-92
2024/02/29 08:36:15;;;;;;;49.88;18.65;;;;;;;;;;6223133;23;20166;-93
2024/02/29 08:39:20;;;;;;;47.03;18.42;;;;;;;;;;6215295;23;20200;-92
2024/02/29 08:42:26;;;;;;;49.65;19.98;;;;;;;;;;6216608;23;20263;-92
2024/02/29 08:45:32;;;;;;;44.13;18.13;;;;;;;;;;6214377;23;20521;-93
2024/02/29 08:48:39;;;;;;;43.50;17.30;;;;;;;;;;6214617;23;20314;-93
2024/02/29 08:51:47;;;;;;;47.60;19.27;;;;;;;;;;6215265;23;20195;-91
2024/02/29 08:54:57;;;;;;;46.70;18.60;;;;;;;;;;6216170;23;20195;-91
2024/02/29 08:58:06;;;;;;;51.22;18.98;;;;;;;;;;6215253;23;20187;-92
2024/02/29 09:01:22;;;;;;;46.97;19.02;;;;;;;;;;6216477;23;20570;-91
2024/02/29 09:04:32;;;;;;;46.80;20.25;;;;;;;;;;6233155;23;20167;-92
2024/02/29 09:07:38;;;;;;;43.60;18.35;;;;;;;;;;6215298;23;20168;-91
2024/02/29 09:10:43;;;;;;;44.05;18.08;;;;;;;;;;6233330;23;20236;-94
2024/02/29 09:13:48;;;;;;;43.58;18.25;;;;;;;;;;6214013;23;20197;-91
2024/02/29 09:16:53;;;;;;;43.42;17.70;;;;;;;;;;6216700;23;20164;-90
2024/02/29 09:20:02;;;;;;;40.95;16.90;;;;;;;;;;6214927;23;20219;-92
2024/02/29 09:23:07;;;;;;;42.40;17.80;;;;;;;;;;6214260;23;20230;-92
2024/02/29 09:26:16;;;;;;;38.88;16.45;;;;;;;;;;6213608;23;20166;-91
2024/02/29 09:29:22;;;;;;;38.83;16.50;;;;;;;;;;6212780;23;20178;-92
2024/02/29 09:35:55;;;;;;;41.70;16.73;;;;;;;;;;6218916;23;20155;-91
2024/02/29 09:39:01;;;;;;;41.90;17.08;;;;;;;;;;6217778;23;20159;-94
2024/02/29 09:42:11;;;;;;;34.05;16.27;;;;;;;;;;6214536;23;20500;-92
2024/02/29 09:48:36;;;;;;;44.78;16.80;;;;;;;;;;6214438;23;20171;-91
2024/02/29 09:51:49;;;;;;;42.33;16.70;;;;;;;;;;6215096;23;20197;-92
2024/02/29 09:54:56;;;;;;;38.97;15.48;;;;;;;;;;6234977;23;20186;-93
2024/02/29 09:58:02;;;;;;;40.63;15.95;;;;;;;;;;6213369;23;20291;-92
2024/02/29 10:01:10;;;;;;;41.65;15.90;;;;;;;;;;6215336;23;20167;-91
2024/02/29 10:14:20;;;;;;;40.13;15.27;;;;;;;;;;6216275;23;20191;-91
2024/02/29 10:17:26;;;;;;;34.28;14.43;;;;;;;;;;6216453;23;20212;-94
2024/02/29 10:20:32;;;;;;;35.42;13.77;;;;;;;;;;6216516;23;20163;-93
2024/02/29 10:23:47;;;;;;;36.67;13.25;;;;;;;;;;6213498;23;20186;-92
2024/02/29 10:27:01;;;;;;;35.13;13.07;;;;;;;;;;6214849;23;20252;-93
2024/02/29 10:30:12;;;;;;;40.00;14.15;;;;;;;;;;6213516;23;20193;-93
2024/02/29 10:33:18;;;;;;;37.17;13.38;;;;;;;;;;6213879;23;20171;-94
2024/02/29 10:36:25;;;;;;;30.77;12.50;;;;;;;;;;6214621;23;20167;-92
2024/02/29 10:39:32;;;;;;;32.20;13.38;;;;;;;;;;6214612;23;20224;-92
2024/02/29 10:42:40;;;;;;;34.88;11.85;;;;;;;;;;6211564;23;20224;-92
2024/02/29 10:45:46;;;;;;;27.38;11.27;;;;;;;;;;6210747;23;20171;-93
2024/02/29 10:48:58;;;;;;;39.08;12.80;;;;;;;;;;6211244;23;20243;-91
2024/02/29 10:52:07;;;;;;;38.08;12.10;;;;;;;;;;6230486;23;20167;-94
2024/02/29 10:55:23;;;;;;;35.95;11.77;;;;;;;;;;6212192;23;20191;-93
2024/02/29 10:58:42;;;;;;;35.30;12.45;;;;;;;;;;6214242;23;20186;-92
2024/02/29 11:01:48;;;;;;;34.30;12.35;;;;;;;;;;6213710;23;20186;-93
2024/02/29 11:04:54;;;;;;;37.40;12.85;;;;;;;;;;6217191;23;20258;-93
2024/02/29 11:07:59;;;;;;;34.58;12.80;;;;;;;;;;6214912;23;20302;-92
2024/02/29 11:14:33;;;;;;;36.58;12.85;;;;;;;;;;6214492;23;20171;-92
2024/02/29 11:17:45;;;;;;;34.55;13.02;;;;;;;;;;6212168;23;20500;-92
2024/02/29 11:21:01;;;;;;;33.63;12.32;;;;;;;;;;6211503;23;20168;-93
2024/02/29 11:24:07;;;;;;;35.03;12.85;;;;;;;;;;6214143;23;20163;-91
2024/02/29 11:27:15;;;;;;;30.13;12.07;;;;;;;;;;6210768;23;20183;-93
2024/02/29 11:30:23;;;;;;;36.10;12.30;;;;;;;;;;6212797;23;20234;-92
2024/02/29 11:33:34;;;;;;;27.13;11.85;;;;;;;;;;6213300;23;20303;-92
2024/02/29 11:36:39;;;;;;;31.60;12.00;;;;;;;;;;6214289;23;20194;-90
2024/02/29 11:39:46;;;;;;;34.75;12.50;;;;;;;;;;6211374;23;20210;-91
2024/02/29 11:43:01;;;;;;;36.53;12.23;;;;;;;;;;6210713;23;20168;-92
2024/02/29 11:46:10;;;;;;;33.78;11.45;;;;;;;;;;6211741;23;20152;-92
2024/02/29 11:49:16;;;;;;;32.88;10.77;;;;;;;;;;6214282;23;20245;-91
2024/02/29 11:52:21;;;;;;;36.53;12.57;;;;;;;;;;6215881;23;20167;-92
2024/02/29 11:55:27;;;;;;;34.30;11.70;;;;;;;;;;6213739;23;20259;-91
2024/02/29 11:58:43;;;;;;;35.42;11.50;;;;;;;;;;6216024;23;20211;-92
2024/02/29 12:01:49;;;;;;;37.97;11.55;;;;;;;;;;6216860;23;20168;-91
2024/02/29 12:04:54;;;;;;;39.78;13.30;;;;;;;;;;6216234;23;20672;-92
2024/02/29 12:07:59;;;;;;;33.28;10.73;;;;;;;;;;6212229;23;20171;-92
2024/02/29 12:11:05;;;;;;;44.25;12.52;;;;;;;;;;6213837;23;20194;-90
2024/02/29 12:14:13;;;;;;;33.65;10.85;;;;;;;;;;6212889;23;20172;-91
2024/02/29 12:17:18;;;;;;;31.60;11.48;;;;;;;;;;6211625;23;20195;-92
2024/02/29 12:20:24;;;;;;;32.65;11.38;;;;;;;;;;6212676;23;20479;-93
2024/02/29 12:23:31;;;;;;;30.20;11.07;;;;;;;;;;6210895;23;20182;-91
2024/02/29 12:26:38;;;;;;;27.90;11.07;;;;;;;;;;6210801;23;20218;-92
2024/02/29 12:29:47;;;;;;;32.25;11.75;;;;;;;;;;6208488;23;20295;-91
2024/02/29 12:32:52;;;;;;;33.03;11.25;;;;;;;;;;6227298;23;20313;-91
2024/02/29 12:35:58;;;;;;;36.55;11.70;;;;;;;;;;6210917;23;20155;-90
2024/02/29 12:39:04;;;;;;;28.23;10.68;;;;;;;;;;6214204;23;20174;-90
2024/02/29 12:42:09;;;;;;;30.95;10.57;;;;;;;;;;6212567;23;20168;-92
2024/02/29 12:45:21;;;;;;;32.83;10.35;;;;;;;;;;6212486;23;20233;-91
2024/02/29 12:48:34;;;;;;;27.95;11.15;;;;;;;;;;6212752;23;20167;-91
2024/02/29 12:51:40;;;;;;;35.53;10.75;;;;;;;;;;6212650;23;20673;-91
2024/02/29 12:54:45;;;;;;;33.25;11.68;;;;;;;;;;6212943;23;20179;-93
2024/02/29 12:57:51;;;;;;;28.67;11.18;;;;;;;;;;6212680;23;20666;-91
2024/02/29 13:01:00;;;;;;;32.13;10.85;;;;;;;;;;6212509;23;20218;-91
2024/02/29 13:04:06;;;;;;;30.83;10.15;;;;;;;;;;6213091;23;20167;-92
2024/02/29 13:07:11;;;;;;;35.78;11.52;;;;;;;;;;6213862;23;20171;-93
2024/02/29 13:10:17;;;;;;;31.02;11.48;;;;;;;;;;6212327;23;20321;-92
2024/02/29 13:13:23;;;;;;;30.65;10.88;;;;;;;;;;6209599;23;20171;-92
2024/02/29 13:16:30;;;;;;;27.08;10.50;;;;;;;;;;6209840;23;20175;-93
2024/02/29 13:19:36;;;;;;;24.83;10.77;;;;;;;;;;6210810;23;20175;-92
2024/02/29 13:22:41;;;;;;;35.10;10.60;;;;;;;;;;6212704;23;20170;-91
2024/02/29 13:25:51;;;;;;;29.90;10.48;;;;;;;;;;6212579;23;20163;-93
2024/02/29 13:28:57;;;;;;;28.60;11.48;;;;;;;;;;6212289;23;20621;-92
2024/02/29 13:32:04;;;;;;;26.48;10.35;;;;;;;;;;6212840;23;20171;-92
2024/02/29 13:35:10;;;;;;;28.73;10.70;;;;;;;;;;6215703;23;20210;-91
2024/02/29 13:38:15;;;;;;;29.45;10.10;;;;;;;;;;6213544;23;20175;-92
2024/02/29 13:41:24;;;;;;;27.75;10.18;;;;;;;;;;6230167;23;20167;-91
2024/02/29 13:44:30;;;;;;;33.10;11.48;;;;;;;;;;6216041;23;20175;-94
2024/02/29 13:47:46;;;;;;;26.70;10.68;;;;;;;;;;6212591;23;20151;-92
2024/02/29 13:50:53;;;;;;;25.25;10.75;;;;;;;;;;6211410;23;20190;-91
2024/02/29 13:53:59;;;;;;;31.20;10.88;;;;;;;;;;6213509;23;20171;-89
2024/02/29 13:57:07;;;;;;;34.00;10.45;;;;;;;;;;6211601;23;20174;-92
2024/02/29 14:00:12;;;;;;;33.67;11.02;;;;;;;;;;6213567;23;20226;-92
2024/02/29 14:03:24;;;;;;;33.03;10.43;;;;;;;;;;6213227;23;20167;-92
2024/02/29 14:06:30;;;;;;;32.22;10.10;;;;;;;;;;6212342;23;20172;-91
2024/02/29 14:09:35;;;;;;;30.45;10.35;;;;;;;;;;6211514;23;20179;-93
2024/02/29 14:12:41;;;;;;;37.20;10.73;;;;;;;;;;6212808;23;20170;-92
2024/02/29 14:15:47;;;;;;;28.23;10.80;;;;;;;;;;6217062;23;20155;-91
2024/02/29 14:19:01;;;;;;;31.67;10.88;;;;;;;;;;6215092;23;20175;-92
2024/02/29 14:22:08;;;;;;;32.38;10.88;;;;;;;;;;6214074;23;20168;-91
2024/02/29 14:28:34;;;;;;;26.52;10.32;;;;;;;;;;6214586;23;20219;-88
2024/02/29 14:31:40;;;;;;;30.98;10.88;;;;;;;;;;6213091;23;20202;-93
2024/02/29 14:34:49;;;;;;;33.17;11.05;;;;;;;;;;6210432;23;20171;-92
2024/02/29 14:37:55;;;;;;;26.25;10.45;;;;;;;;;;6209626;23;20244;-91
2024/02/29 14:41:04;;;;;;;32.67;11.18;;;;;;;;;;6209958;23;20610;-91
2024/02/29 14:44:10;;;;;;;30.27;10.43;;;;;;;;;;6211052;23;20155;-92
2024/02/29 14:47:15;;;;;;;26.73;10.63;;;;;;;;;;6210741;23;20167;-92
2024/02/29 14:50:22;;;;;;;25.55;10.43;;;;;;;;;;6210178;23;20234;-93
2024/02/29 14:53:30;;;;;;;28.55;10.23;;;;;;;;;;6228403;23;20166;-93
2024/02/29 14:56:45;;;;;;;28.08;10.85;;;;;;;;;;6209168;23;20186;-93
2024/02/29 14:59:50;;;;;;;38.03;10.75;;;;;;;;;;6210193;23;20170;-92
2024/02/29 15:02:56;;;;;;;29.60;10.90;;;;;;;;;;6210826;23;20170;-92
2024/02/29 15:06:17;;;;;;;26.25;10.85;;;;;;;;;;6215172;23;20653;-92
2024/02/29 15:09:24;;;;;;;25.60;10.75;;;;;;;;;;6209449;23;20167;-91
2024/02/29 15:12:30;;;;;;;39.63;12.15;;;;;;;;;;6211707;23;20179;-92
2024/02/29 15:15:37;;;;;;;34.97;11.75;;;;;;;;;;6213149;23;20175;-92
2024/02/29 15:18:44;;;;;;;33.40;11.88;;;;;;;;;;6232192;23;20226;-91
2024/02/29 15:21:50;;;;;;;30.52;11.85;;;;;;;;;;6210246;23;20171;-90
2024/02/29 15:25:16;;;;;;;33.78;12.93;;;;;;;;;;6214596;23;20178;-91
2024/02/29 15:28:24;;;;;;;61.35;26.38;;;;;;;;;;6213704;23;20216;-91
2024/02/29 15:31:31;;;;;;;42.28;17.33;;;;;;;;;;6211471;23;20198;-93
2024/02/29 15:34:36;;;;;;;34.90;14.15;;;;;;;;;;6213751;23;20171;-92
2024/02/29 15:37:44;;;;;;;35.30;13.45;;;;;;;;;;6219232;23;20167;-91
2024/02/29 15:40:51;;;;;;;33.33;11.73;;;;;;;;;;6187602;23;20176;-91
2024/02/29 15:43:59;;;;;;;34.03;13.05;;;;;;;;;;6190637;23;20148;-92
2024/02/29 19:48:04;;;;;;;52.92;21.70;;;;;;;;;;6180693;23;20216;-91
2024/02/29 19:57:49;;;;;;;55.63;22.02;;;;;;;;;;6206093;23;20209;-91
2024/02/29 20:01:00;;;;;;;66.13;22.40;;;;;;;;;;6205164;23;20171;-91
2024/02/29 20:04:21;;;;;;;71.60;22.27;;;;;;;;;;6205601;23;20333;-91
2024/02/29 21:12:03;;;;;;;56.03;20.85;;;;;;;;;;6162883;23;20672;-90
2024/02/29 21:15:08;;;;;;;64.50;23.42;;;;;;;;;;6184174;23;20168;-92
2024/02/29 21:18:13;;;;;;;55.92;21.55;;;;;;;;;;6186299;23;20564;-92
2024/02/29 21:21:19;;;;;;;54.92;21.02;;;;;;;;;;6202174;23;20232;-92
2024/02/29 21:24:26;;;;;;;58.22;21.17;;;;;;;;;;6184605;23;20655;-92
2024/02/29 21:27:33;;;;;;;59.40;22.25;;;;;;;;;;6181786;23;20192;-93
2024/02/29 21:30:39;;;;;;;57.03;22.23;;;;;;;;;;6184152;23;20244;-93
2024/02/29 21:33:45;;;;;;;57.80;20.67;;;;;;;;;;6201391;23;20208;-92
2024/02/29 21:36:50;;;;;;;63.05;25.70;;;;;;;;;;6182739;23;20163;-92
2024/02/29 21:39:56;;;;;;;59.90;20.63;;;;;;;;;;6200542;23;20160;-93
2024/02/29 21:43:02;;;;;;;65.22;20.30;;;;;;;;;;6183945;23;20224;-92
2024/02/29 21:46:09;;;;;;;49.45;18.63;;;;;;;;;;6203450;23;20221;-93
2024/02/29 21:49:16;;;;;;;52.47;20.02;;;;;;;;;;6203859;23;20167;-91
2024/02/29 21:52:27;;;;;;;50.80;19.08;;;;;;;;;;6202110;23;20270;-92
2024/02/29 21:55:33;;;;;;;47.53;18.67;;;;;;;;;;6183789;23;20205;-93
2024/02/29 21:58:40;;;;;;;50.25;20.90;;;;;;;;;;6183714;23;20241;-91
2024/02/29 22:01:46;;;;;;;54.72;19.52;;;;;;;;;;6186631;23;20212;-91
2024/02/29 22:04:54;;;;;;;48.55;18.75;;;;;;;;;;6206137;23;20618;-91
2024/02/29 22:08:00;;;;;;;44.83;18.90;;;;;;;;;;6203674;23;20172;-91
2024/02/29 22:11:06;;;;;;;51.00;19.95;;;;;;;;;;6184460;23;20236;-92
2024/02/29 22:14:12;;;;;;;48.65;19.45;;;;;;;;;;6183063;23;20171;-91
2024/02/29 22:17:17;;;;;;;49.50;18.52;;;;;;;;;;6200049;23;20216;-91
2024/02/29 22:20:22;;;;;;;48.88;18.65;;;;;;;;;;6182290;23;20171;-92
2024/02/29 22:23:29;;;;;;;49.47;18.80;;;;;;;;;;6183149;23;20275;-90
2024/02/29 22:26:34;;;;;;;50.55;17.92;;;;;;;;;;6180669;23;20508;-91
2024/02/29 22:29:41;;;;;;;45.25;18.27;;;;;;;;;;6197324;23;20191;-92
2024/02/29 22:32:46;;;;;;;54.53;18.95;;;;;;;;;;6181068;23;20666;-93
2024/02/29 22:35:51;;;;;;;50.53;19.42;;;;;;;;;;6198097;23;20187;-93
2024/02/29 22:38:56;;;;;;;52.45;16.95;;;;;;;;;;6198020;23;20290;-92
2024/02/29 22:42:01;;;;;;;43.58;16.85;;;;;;;;;;6178478;23;20164;-92
2024/02/29 22:45:09;;;;;;;46.35;18.13;;;;;;;;;;6180401;23;20170;-90
2024/02/29 22:48:15;;;;;;;44.10;17.25;;;;;;;;;;6198026;23;20172;-91
2024/02/29 22:51:20;;;;;;;40.70;16.58;;;;;;;;;;6196615;23;20191;-91
2024/02/29 22:54:26;;;;;;;41.67;16.70;;;;;;;;;;6179112;23;20213;-92
2024/02/29 22:57:31;;;;;;;48.85;16.15;;;;;;;;;;6177743;23;20239;-92
2024/02/29 23:00:38;;;;;;;41.87;16.00;;;;;;;;;;6196035;23;20276;-92
2024/02/29 23:03:47;;;;;;;46.47;18.00;;;;;;;;;;6198041;23;20545;-93
2024/02/29 23:06:53;;;;;;;46.10;18.17;;;;;;;;;;6181346;23;20167;-92
2024/02/29 23:09:58;;;;;;;48.67;17.03;;;;;;;;;;6182383;23;20238;-91
2024/02/29 23:13:04;;;;;;;43.80;16.67;;;;;;;;;;6181201;23;20215;-90
2024/02/29 23:16:10;;;;;;;45.22;16.83;;;;;;;;;;6181191;23;20242;-91
2024/02/29 23:19:15;;;;;;;43.63;16.23;;;;;;;;;;6196012;23;20175;-90
2024/02/29 23:22:20;;;;;;;55.20;19.00;;;;;;;;;;6197577;23;20145;-92
2024/02/29 23:25:26;;;;;;;46.17;16.87;;;;;;;;;;6193786;23;20171;-91
2024/02/29 23:28:31;;;;;;;54.03;16.43;;;;;;;;;;6194243;23;20166;-91
2024/02/29 23:31:38;;;;;;;43.57;15.53;;;;;;;;;;6176154;23;20270;-92
2024/02/29 23:34:43;;;;;;;43.57;15.60;;;;;;;;;;6178190;23;20163;-91
2024/02/29 23:37:48;;;;;;;45.67;16.53;;;;;;;;;;6178511;23;20259;-92
2024/02/29 23:40:56;;;;;;;43.63;16.92;;;;;;;;;;6195927;23;20172;-91
2024/02/29 23:44:01;;;;;;;44.05;15.85;;;;;;;;;;6181021;23;20246;-91